Lena — V2FR — position and weather

sailwx.info

Track history (hours):
 
Tides and Currents Weather Stations Pressure Air Temp Water Temp Dewpoint Dewpoint Depression Visibility Wind Speed Wind Dir Waves Ship Positions

Lena

Last reported at 2018-Feb-10 01:14 UTC. Time now 2018-Feb-22 09:16 UTC.
Position N 09°11' W 079°52'.
Warning: this ship's position is 12 days out of date.

Length 152 m; draft 6.5 m.

Type: Ship. MMSI: 304080808.

Date/timePositionNaut miles runAvg speedWind from/ knotsBaromVisibWave heightAir tempDewpointWater temp
2018-Feb-10 01:14N 09°11' W 079°52'313.6
2018-Feb-10 01:00N 09°12' W 079°55'4 8.4
2018-Feb-10 00:31N 09°16' W 079°55'0 0.4
2018-Feb-10 00:00N 09°16' W 079°55'0 0.8
2018-Feb-09 23:30N 09°17' W 079°55'0 0.0
2018-Feb-09 22:59N 09°17' W 079°55'0 1.7
2018-Feb-09 22:46N 09°17' W 079°55'3 3.4
2018-Feb-09 22:00N 09°20' W 079°55'3 0.1
2018-Feb-08 20:00N 09°23' W 079°55'3 5.6
2018-Feb-08 19:30N 09°25' W 079°55'1 2.0
2018-Feb-08 19:00N 09°26' W 079°56'0 0.0
2018-Feb-08 01:12N 09°26' W 079°57'0 0.0
2018-Feb-08 00:54N 09°26' W 079°57'0 0.0
2018-Feb-08 00:18N 09°26' W 079°57'0 0.7
2018-Feb-08 00:00N 09°26' W 079°56'  
2018-Feb-01 15:27N 26°35' W 079°49'818.9
2018-Feb-01 15:01N 26°27' W 079°49'2818.4
2018-Feb-01 13:31N 25°59' W 079°48'918.2
2018-Feb-01 13:00N 25°50' W 079°47'816.9
2018-Feb-01 12:30N 25°42' W 079°50'917.8
2018-Feb-01 12:01N 25°33' W 079°50'  
Track history (hours):
 
Tides and Currents Weather Stations Pressure Air Temp Water Temp Dewpoint Dewpoint Depression Visibility Wind Speed Wind Dir Waves Ship Positions

Lena

Last reported at 2018-Feb-10 01:14 UTC. Time now 2018-Feb-22 09:16 UTC.
Position N 09°11' W 079°52'.
Warning: this ship's position is 12 days out of date.

Length 152 m; draft 6.5 m.

Type: Ship. MMSI: 304080808.

Date/timePositionNaut miles runAvg speedWind from/ knotsBaromVisibWave heightAir tempDewpointWater temp
2018-Feb-10 01:14N 09°11' W 079°52'313.6
2018-Feb-10 01:00N 09°12' W 079°55'4 8.4
2018-Feb-10 00:31N 09°16' W 079°55'0 0.4
2018-Feb-10 00:00N 09°16' W 079°55'0 0.8
2018-Feb-09 23:30N 09°17' W 079°55'0 0.0
2018-Feb-09 22:59N 09°17' W 079°55'0 1.7
2018-Feb-09 22:46N 09°17' W 079°55'3 3.4
2018-Feb-09 22:00N 09°20' W 079°55'3 0.1
2018-Feb-08 20:00N 09°23' W 079°55'3 5.6
2018-Feb-08 19:30N 09°25' W 079°55'1 2.0
2018-Feb-08 19:00N 09°26' W 079°56'0 0.0
2018-Feb-08 01:12N 09°26' W 079°57'0 0.0
2018-Feb-08 00:54N 09°26' W 079°57'0 0.0
2018-Feb-08 00:18N 09°26' W 079°57'0 0.7
2018-Feb-08 00:00N 09°26' W 079°56'  
2018-Feb-01 15:27N 26°35' W 079°49'818.9
2018-Feb-01 15:01N 26°27' W 079°49'2818.4
2018-Feb-01 13:31N 25°59' W 079°48'918.2
2018-Feb-01 13:00N 25°50' W 079°47'816.9
2018-Feb-01 12:30N 25°42' W 079°50'917.8
2018-Feb-01 12:01N 25°33' W 079°50'  

Dump ship's entire track history